Time;durP1;ratioP1;P1;durP2;ratioP2;P2;SDS_P1;SDS_P2;PMS_P1;PMS_P2;Temp;Humidity;BMP_temperature;BMP_pressure;BME280_temperature;BME280_humidity;BME280_pressure;Samples;Min_cycle;Max_cycle;Signal;HPM_P1;HPM_P2
2022/03/16 00:00:20;;;;;;;12.65;6.25;;;;;;;8.89;75.55664;95714.62;;;;
2022/03/16 00:01:21;;;;;;;12.65;6.25;;;;;;;8.89;75.55664;95714.62;;;;
2022/03/16 00:02:21;;;;;;;12.65;6.25;;;;;;;8.89;75.55664;95714.62;;;;
2022/03/16 00:03:22;;;;;;;12.65;6.25;;;;;;;8.89;75.55664;95714.62;;;;
2022/03/16 00:04:23;;;;;;;12.65;6.25;;;;;;;8.89;75.55664;95714.62;;;;
2022/03/16 00:05:23;;;;;;;12.65;6.25;;;;;;;8.89;75.55664;95714.62;;;;
2022/03/16 00:06:24;;;;;;;14.1;6.299999;;;;;;;8.89;75.65234;95720;;;;
2022/03/16 00:07:24;;;;;;;14.1;6.299999;;;;;;;8.89;75.65234;95720;;;;
2022/03/16 00:08:28;;;;;;;14.1;6.299999;;;;;;;8.89;75.65234;95720;;;;
2022/03/16 00:09:29;;;;;;;14.1;6.299999;;;;;;;8.89;75.65234;95720;;;;
2022/03/16 00:10:29;;;;;;;14.1;6.299999;;;;;;;8.89;75.65234;95720;;;;
2022/03/16 00:11:30;;;;;;;14.1;6.299999;;;;;;;8.89;75.65234;95720;;;;
2022/03/16 00:12:31;;;;;;;14.1;6.299999;;;;;;;8.89;75.65234;95720;;;;
2022/03/16 00:13:31;;;;;;;14.1;6.299999;;;;;;;8.89;75.65234;95720;;;;
2022/03/16 00:14:32;;;;;;;14.1;6.299999;;;;;;;8.89;75.65234;95720;;;;
2022/03/16 00:15:32;;;;;;;14.1;6.299999;;;;;;;8.89;75.65234;95720;;;;
2022/03/16 00:16:33;;;;;;;15;6.65;;;;;;;8.92;75.7832;95732.23;;;;
2022/03/16 00:17:33;;;;;;;15;6.65;;;;;;;8.92;75.7832;95732.23;;;;
2022/03/16 00:18:34;;;;;;;15;6.65;;;;;;;8.92;75.7832;95732.23;;;;
2022/03/16 00:19:34;;;;;;;15;6.65;;;;;;;8.92;75.7832;95732.23;;;;
2022/03/16 00:20:36;;;;;;;15;6.65;;;;;;;8.92;75.7832;95732.23;;;;
2022/03/16 00:21:36;;;;;;;15;6.65;;;;;;;8.92;75.7832;95732.23;;;;
2022/03/16 00:22:37;;;;;;;15;6.65;;;;;;;8.92;75.7832;95732.23;;;;
2022/03/16 00:23:37;;;;;;;15;6.65;;;;;;;8.92;75.7832;95732.23;;;;
2022/03/16 00:24:38;;;;;;;15;6.65;;;;;;;8.92;75.7832;95732.23;;;;
2022/03/16 00:25:38;;;;;;;15;6.65;;;;;;;8.92;75.7832;95732.23;;;;
2022/03/16 00:26:39;;;;;;;15;6.65;;;;;;;8.92;75.7832;95732.23;;;;
2022/03/16 00:27:40;;;;;;;10.8;7;;;;;;;8.82;75.68164;95745.72;;;;
2022/03/16 00:28:40;;;;;;;10.8;7;;;;;;;8.82;75.68164;95745.72;;;;
2022/03/16 00:29:41;;;;;;;10.8;7;;;;;;;8.82;75.68164;95745.72;;;;
2022/03/16 00:30:41;;;;;;;10.8;7;;;;;;;8.82;75.68164;95745.72;;;;
2022/03/16 00:31:41;;;;;;;10.8;7;;;;;;;8.82;75.68164;95745.72;;;;
2022/03/16 00:32:42;;;;;;;10.8;7;;;;;;;8.82;75.68164;95745.72;;;;
2022/03/16 00:33:43;;;;;;;10.8;7;;;;;;;8.82;75.68164;95745.72;;;;
2022/03/16 00:34:43;;;;;;;10.8;7;;;;;;;8.82;75.68164;95745.72;;;;
2022/03/16 00:35:44;;;;;;;10.8;7;;;;;;;8.82;75.68164;95745.72;;;;
2022/03/16 00:36:44;;;;;;;10.8;7;;;;;;;8.82;75.68164;95745.72;;;;
2022/03/16 00:37:46;;;;;;;10.8;7;;;;;;;8.82;75.68164;95745.72;;;;
2022/03/16 00:38:46;;;;;;;10.8;7;;;;;;;8.82;75.68164;95745.72;;;;
2022/03/16 00:39:47;;;;;;;10.8;7;;;;;;;8.82;75.68164;95745.72;;;;
2022/03/16 00:40:47;;;;;;;10.8;7;;;;;;;8.82;75.68164;95745.72;;;;
2022/03/16 00:41:48;;;;;;;10.8;7;;;;;;;8.82;75.68164;95745.72;;;;
2022/03/16 00:42:48;;;;;;;10.8;7;;;;;;;8.82;75.68164;95745.72;;;;
2022/03/16 00:43:49;;;;;;;10.8;7;;;;;;;8.82;75.68164;95745.72;;;;
2022/03/16 00:44:50;;;;;;;10.8;7;;;;;;;8.82;75.68164;95745.72;;;;
2022/03/16 00:45:50;;;;;;;10.8;7;;;;;;;8.82;75.68164;95745.72;;;;
2022/03/16 00:46:51;;;;;;;10.8;7;;;;;;;8.82;75.68164;95745.72;;;;
2022/03/16 00:47:51;;;;;;;10.8;7;;;;;;;8.82;75.68164;95745.72;;;;
2022/03/16 00:48:52;;;;;;;13.1;8.4;;;;;;;8.66;75.97363;95752.51;;;;
2022/03/16 00:49:52;;;;;;;13.1;8.4;;;;;;;8.66;75.97363;95752.51;;;;
2022/03/16 00:50:53;;;;;;;13.1;8.4;;;;;;;8.66;75.97363;95752.51;;;;
2022/03/16 00:51:53;;;;;;;13.1;8.4;;;;;;;8.66;75.97363;95752.51;;;;
2022/03/16 00:52:54;;;;;;;13.1;8.4;;;;;;;8.66;75.97363;95752.51;;;;
2022/03/16 00:53:55;;;;;;;13.1;8.4;;;;;;;8.66;75.97363;95752.51;;;;
2022/03/16 00:54:55;;;;;;;13.1;8.4;;;;;;;8.66;75.97363;95752.51;;;;
2022/03/16 00:55:56;;;;;;;13.1;8.4;;;;;;;8.66;75.97363;95752.51;;;;
2022/03/16 00:56:56;;;;;;;13.1;8.4;;;;;;;8.66;75.97363;95752.51;;;;
2022/03/16 00:57:57;;;;;;;13.1;8.4;;;;;;;8.66;75.97363;95752.51;;;;
2022/03/16 00:58:57;;;;;;;17.45;10.45;;;;;;;8.6;76.3252;95755.11;;;;
2022/03/16 00:59:58;;;;;;;17.45;10.45;;;;;;;8.6;76.3252;95755.11;;;;
2022/03/16 01:00:59;;;;;;;17.45;10.45;;;;;;;8.6;76.3252;95755.11;;;;
2022/03/16 01:01:59;;;;;;;17.45;10.45;;;;;;;8.6;76.3252;95755.11;;;;
2022/03/16 01:03:00;;;;;;;17.45;10.45;;;;;;;8.6;76.3252;95755.11;;;;
2022/03/16 01:04:00;;;;;;;17.45;10.45;;;;;;;8.6;76.3252;95755.11;;;;
2022/03/16 01:05:01;;;;;;;17.45;10.45;;;;;;;8.6;76.3252;95755.11;;;;
2022/03/16 01:06:02;;;;;;;17.45;10.45;;;;;;;8.6;76.3252;95755.11;;;;
2022/03/16 01:07:02;;;;;;;17.45;10.45;;;;;;;8.6;76.3252;95755.11;;;;
2022/03/16 01:08:04;;;;;;;17.45;10.45;;;;;;;8.6;76.3252;95755.11;;;;
2022/03/16 01:09:05;;;;;;;17.45;10.45;;;;;;;8.6;76.3252;95755.11;;;;
2022/03/16 01:10:06;;;;;;;15.75;11.35;;;;;;;8.52;76.29102;95753.09;;;;
2022/03/16 01:11:07;;;;;;;15.75;11.35;;;;;;;8.52;76.29102;95753.09;;;;
2022/03/16 01:12:08;;;;;;;15.75;11.35;;;;;;;8.52;76.29102;95753.09;;;;
2022/03/16 01:13:10;;;;;;;15.75;11.35;;;;;;;8.52;76.29102;95753.09;;;;
2022/03/16 01:14:10;;;;;;;15.75;11.35;;;;;;;8.52;76.29102;95753.09;;;;
2022/03/16 01:15:11;;;;;;;15.75;11.35;;;;;;;8.52;76.29102;95753.09;;;;
2022/03/16 01:16:12;;;;;;;15.75;11.35;;;;;;;8.52;76.29102;95753.09;;;;
2022/03/16 01:17:13;;;;;;;15.75;11.35;;;;;;;8.52;76.29102;95753.09;;;;
2022/03/16 01:18:15;;;;;;;15.75;11.35;;;;;;;8.52;76.29102;95753.09;;;;
2022/03/16 01:19:15;;;;;;;15.75;11.35;;;;;;;8.52;76.29102;95753.09;;;;
2022/03/16 01:20:16;;;;;;;15.75;11.35;;;;;;;8.52;76.29102;95753.09;;;;
2022/03/16 01:21:17;;;;;;;18.5;12.85;;;;;;;8.38;76.38281;95753.21;;;;
2022/03/16 01:22:19;;;;;;;18.5;12.85;;;;;;;8.38;76.38281;95753.21;;;;
2022/03/16 01:23:19;;;;;;;18.5;12.85;;;;;;;8.38;76.38281;95753.21;;;;
2022/03/16 01:24:20;;;;;;;18.5;12.85;;;;;;;8.38;76.38281;95753.21;;;;
2022/03/16 01:25:20;;;;;;;18.5;12.85;;;;;;;8.38;76.38281;95753.21;;;;
2022/03/16 01:26:21;;;;;;;18.5;12.85;;;;;;;8.38;76.38281;95753.21;;;;
2022/03/16 01:27:22;;;;;;;18.5;12.85;;;;;;;8.38;76.38281;95753.21;;;;
2022/03/16 01:28:22;;;;;;;18.5;12.85;;;;;;;8.38;76.38281;95753.21;;;;
2022/03/16 01:29:24;;;;;;;18.5;12.85;;;;;;;8.38;76.38281;95753.21;;;;
2022/03/16 01:30:25;;;;;;;18.5;12.85;;;;;;;8.38;76.38281;95753.21;;;;
2022/03/16 01:31:25;;;;;;;19.35;15.25;;;;;;;8.28;76.70508;95742.58;;;;
2022/03/16 01:32:26;;;;;;;19.35;15.25;;;;;;;8.28;76.70508;95742.58;;;;
2022/03/16 01:33:26;;;;;;;19.35;15.25;;;;;;;8.28;76.70508;95742.58;;;;
2022/03/16 01:34:27;;;;;;;19.35;15.25;;;;;;;8.28;76.70508;95742.58;;;;
2022/03/16 01:35:28;;;;;;;19.35;15.25;;;;;;;8.28;76.70508;95742.58;;;;
2022/03/16 01:36:28;;;;;;;19.35;15.25;;;;;;;8.28;76.70508;95742.58;;;;
2022/03/16 01:37:30;;;;;;;19.35;15.25;;;;;;;8.28;76.70508;95742.58;;;;
2022/03/16 01:38:31;;;;;;;19.35;15.25;;;;;;;8.28;76.70508;95742.58;;;;
2022/03/16 01:39:31;;;;;;;19.35;15.25;;;;;;;8.28;76.70508;95742.58;;;;
2022/03/16 01:40:32;;;;;;;19.35;15.25;;;;;;;8.28;76.70508;95742.58;;;;
2022/03/16 01:41:33;;;;;;;19.35;15.25;;;;;;;8.28;76.70508;95742.58;;;;
2022/03/16 01:42:33;;;;;;;21.65;16.1;;;;;;;8.28;77.13086;95753.25;;;;
2022/03/16 01:43:34;;;;;;;21.65;16.1;;;;;;;8.28;77.13086;95753.25;;;;
2022/03/16 01:44:34;;;;;;;21.65;16.1;;;;;;;8.28;77.13086;95753.25;;;;
2022/03/16 01:45:45;;;;;;;21.65;16.1;;;;;;;8.28;77.13086;95753.25;;;;
2022/03/16 01:46:46;;;;;;;21.65;16.1;;;;;;;8.28;77.13086;95753.25;;;;
2022/03/16 01:47:47;;;;;;;21.65;16.1;;;;;;;8.28;77.13086;95753.25;;;;
2022/03/16 01:48:47;;;;;;;21.65;16.1;;;;;;;8.28;77.13086;95753.25;;;;
2022/03/16 01:49:48;;;;;;;21.65;16.1;;;;;;;8.28;77.13086;95753.25;;;;
2022/03/16 01:50:50;;;;;;;21.65;16.1;;;;;;;8.28;77.13086;95753.25;;;;
2022/03/16 01:51:53;;;;;;;21.65;16.1;;;;;;;8.28;77.13086;95753.25;;;;
2022/03/16 01:52:53;;;;;;;24.25;17.1;;;;;;;8.32;77.23535;95748.69;;;;
2022/03/16 01:53:54;;;;;;;24.25;17.1;;;;;;;8.32;77.23535;95748.69;;;;
2022/03/16 01:54:54;;;;;;;24.25;17.1;;;;;;;8.32;77.23535;95748.69;;;;
2022/03/16 01:55:57;;;;;;;24.25;17.1;;;;;;;8.32;77.23535;95748.69;;;;
2022/03/16 01:56:57;;;;;;;24.25;17.1;;;;;;;8.32;77.23535;95748.69;;;;
2022/03/16 01:57:58;;;;;;;24.25;17.1;;;;;;;8.32;77.23535;95748.69;;;;
2022/03/16 01:59:00;;;;;;;24.25;17.1;;;;;;;8.32;77.23535;95748.69;;;;
2022/03/16 02:00:01;;;;;;;24.25;17.1;;;;;;;8.32;77.23535;95748.69;;;;
2022/03/16 02:01:04;;;;;;;24.25;17.1;;;;;;;8.32;77.23535;95748.69;;;;
2022/03/16 02:02:04;;;;;;;24.25;17.1;;;;;;;8.32;77.23535;95748.69;;;;
2022/03/16 02:03:07;;;;;;;24.25;17.1;;;;;;;8.32;77.23535;95748.69;;;;
2022/03/16 02:04:08;;;;;;;24.8;18.6;;;;;;;8.27;77.36328;95747.16;;;;
2022/03/16 02:05:08;;;;;;;24.8;18.6;;;;;;;8.27;77.36328;95747.16;;;;
2022/03/16 02:06:09;;;;;;;24.8;18.6;;;;;;;8.27;77.36328;95747.16;;;;
2022/03/16 02:07:10;;;;;;;24.8;18.6;;;;;;;8.27;77.36328;95747.16;;;;
2022/03/16 02:08:10;;;;;;;24.8;18.6;;;;;;;8.27;77.36328;95747.16;;;;
2022/03/16 02:09:11;;;;;;;24.8;18.6;;;;;;;8.27;77.36328;95747.16;;;;
2022/03/16 02:10:12;;;;;;;24.8;18.6;;;;;;;8.27;77.36328;95747.16;;;;
2022/03/16 02:11:14;;;;;;;24.8;18.6;;;;;;;8.27;77.36328;95747.16;;;;
2022/03/16 02:12:14;;;;;;;24.8;18.6;;;;;;;8.27;77.36328;95747.16;;;;
2022/03/16 02:13:15;;;;;;;24.8;18.6;;;;;;;8.27;77.36328;95747.16;;;;
2022/03/16 02:14:17;;;;;;;23.25;18.85;;;;;;;8.23;77.61035;95746.39;;;;
2022/03/16 02:15:18;;;;;;;23.25;18.85;;;;;;;8.23;77.61035;95746.39;;;;
2022/03/16 02:16:20;;;;;;;23.25;18.85;;;;;;;8.23;77.61035;95746.39;;;;
2022/03/16 02:17:21;;;;;;;23.25;18.85;;;;;;;8.23;77.61035;95746.39;;;;
2022/03/16 02:18:21;;;;;;;23.25;18.85;;;;;;;8.23;77.61035;95746.39;;;;
2022/03/16 02:19:22;;;;;;;23.25;18.85;;;;;;;8.23;77.61035;95746.39;;;;
2022/03/16 02:20:23;;;;;;;23.25;18.85;;;;;;;8.23;77.61035;95746.39;;;;
2022/03/16 02:21:25;;;;;;;23.25;18.85;;;;;;;8.23;77.61035;95746.39;;;;
2022/03/16 02:22:27;;;;;;;23.25;18.85;;;;;;;8.23;77.61035;95746.39;;;;
2022/03/16 02:23:30;;;;;;;23.25;18.85;;;;;;;8.23;77.61035;95746.39;;;;
2022/03/16 02:24:30;;;;;;;23.25;18.85;;;;;;;8.23;77.61035;95746.39;;;;
2022/03/16 02:25:31;;;;;;;29.55;20.1;;;;;;;8.26;77.75488;95753.97;;;;
2022/03/16 02:26:33;;;;;;;29.55;20.1;;;;;;;8.26;77.75488;95753.97;;;;
2022/03/16 02:27:34;;;;;;;29.55;20.1;;;;;;;8.26;77.75488;95753.97;;;;
2022/03/16 02:28:38;;;;;;;29.55;20.1;;;;;;;8.26;77.75488;95753.97;;;;
2022/03/16 02:29:38;;;;;;;29.55;20.1;;;;;;;8.26;77.75488;95753.97;;;;
2022/03/16 02:30:39;;;;;;;29.55;20.1;;;;;;;8.26;77.75488;95753.97;;;;
2022/03/16 02:31:39;;;;;;;29.55;20.1;;;;;;;8.26;77.75488;95753.97;;;;
2022/03/16 02:32:40;;;;;;;29.55;20.1;;;;;;;8.26;77.75488;95753.97;;;;
2022/03/16 02:33:40;;;;;;;29.55;20.1;;;;;;;8.26;77.75488;95753.97;;;;
2022/03/16 02:34:41;;;;;;;29.55;20.1;;;;;;;8.26;77.75488;95753.97;;;;
2022/03/16 02:35:41;;;;;;;30.65;23.1;;;;;;;8.22;77.75879;95759.01;;;;
2022/03/16 02:36:42;;;;;;;30.65;23.1;;;;;;;8.22;77.75879;95759.01;;;;
2022/03/16 02:37:42;;;;;;;30.65;23.1;;;;;;;8.22;77.75879;95759.01;;;;
2022/03/16 02:38:43;;;;;;;30.65;23.1;;;;;;;8.22;77.75879;95759.01;;;;
2022/03/16 02:39:44;;;;;;;30.65;23.1;;;;;;;8.22;77.75879;95759.01;;;;
2022/03/16 02:40:44;;;;;;;30.65;23.1;;;;;;;8.22;77.75879;95759.01;;;;
2022/03/16 02:41:45;;;;;;;30.65;23.1;;;;;;;8.22;77.75879;95759.01;;;;
2022/03/16 02:42:46;;;;;;;30.65;23.1;;;;;;;8.22;77.75879;95759.01;;;;
2022/03/16 02:43:46;;;;;;;30.65;23.1;;;;;;;8.22;77.75879;95759.01;;;;
2022/03/16 02:44:47;;;;;;;30.65;23.1;;;;;;;8.22;77.75879;95759.01;;;;
2022/03/16 02:45:47;;;;;;;30.65;23.1;;;;;;;8.22;77.75879;95759.01;;;;
2022/03/16 02:46:48;;;;;;;30.65;23.1;;;;;;;8.22;77.75879;95759.01;;;;
2022/03/16 02:47:49;;;;;;;30.65;23.1;;;;;;;8.22;77.75879;95759.01;;;;
2022/03/16 02:48:49;;;;;;;30.65;23.1;;;;;;;8.22;77.75879;95759.01;;;;
2022/03/16 02:49:50;;;;;;;30.65;23.1;;;;;;;8.22;77.75879;95759.01;;;;
2022/03/16 02:50:51;;;;;;;30.65;23.1;;;;;;;8.22;77.75879;95759.01;;;;
2022/03/16 02:51:51;;;;;;;30.65;23.1;;;;;;;8.22;77.75879;95759.01;;;;
2022/03/16 02:52:52;;;;;;;30.65;23.1;;;;;;;8.22;77.75879;95759.01;;;;
2022/03/16 02:53:52;;;;;;;30.65;23.1;;;;;;;8.22;77.75879;95759.01;;;;
2022/03/16 02:54:53;;;;;;;30.65;23.1;;;;;;;8.22;77.75879;95759.01;;;;
2022/03/16 02:55:54;;;;;;;30.65;23.1;;;;;;;8.22;77.75879;95759.01;;;;
2022/03/16 02:56:54;;;;;;;30.65;23.1;;;;;;;8.22;77.75879;95759.01;;;;
2022/03/16 02:57:55;;;;;;;30.65;23.1;;;;;;;8.22;77.75879;95759.01;;;;
2022/03/16 02:58:56;;;;;;;30.65;23.1;;;;;;;8.22;77.75879;95759.01;;;;
2022/03/16 02:59:56;;;;;;;30.65;23.1;;;;;;;8.22;77.75879;95759.01;;;;
2022/03/16 03:00:57;;;;;;;30.65;23.1;;;;;;;8.22;77.75879;95759.01;;;;
2022/03/16 03:01:57;;;;;;;30.65;23.1;;;;;;;8.22;77.75879;95759.01;;;;
2022/03/16 03:02:58;;;;;;;30.65;23.1;;;;;;;8.22;77.75879;95759.01;;;;
2022/03/16 03:03:58;;;;;;;30.65;23.1;;;;;;;8.22;77.75879;95759.01;;;;
2022/03/16 03:04:59;;;;;;;30.65;23.1;;;;;;;8.22;77.75879;95759.01;;;;
2022/03/16 03:05:59;;;;;;;30.65;23.1;;;;;;;8.22;77.75879;95759.01;;;;
2022/03/16 03:07:00;;;;;;;30.65;23.1;;;;;;;8.22;77.75879;95759.01;;;;
2022/03/16 03:08:00;;;;;;;35.15;25.7;;;;;;;8.22;78.16113;95777.03;;;;
2022/03/16 03:09:01;;;;;;;35.15;25.7;;;;;;;8.22;78.16113;95777.03;;;;
2022/03/16 03:10:02;;;;;;;35.15;25.7;;;;;;;8.22;78.16113;95777.03;;;;
2022/03/16 03:11:03;;;;;;;35.15;25.7;;;;;;;8.22;78.16113;95777.03;;;;
2022/03/16 03:12:03;;;;;;;35.15;25.7;;;;;;;8.22;78.16113;95777.03;;;;
2022/03/16 03:13:05;;;;;;;35.15;25.7;;;;;;;8.22;78.16113;95777.03;;;;
2022/03/16 03:14:05;;;;;;;35.15;25.7;;;;;;;8.22;78.16113;95777.03;;;;
2022/03/16 03:15:09;;;;;;;35.15;25.7;;;;;;;8.22;78.16113;95777.03;;;;
2022/03/16 03:16:10;;;;;;;35.15;25.7;;;;;;;8.22;78.16113;95777.03;;;;
2022/03/16 03:17:11;;;;;;;35.15;25.7;;;;;;;8.22;78.16113;95777.03;;;;
2022/03/16 03:18:11;;;;;;;35.15;25.7;;;;;;;8.22;78.16113;95777.03;;;;
2022/03/16 03:19:12;;;;;;;38.5;27.95;;;;;;;8.21;78.45898;95775.78;;;;
2022/03/16 03:20:12;;;;;;;38.5;27.95;;;;;;;8.21;78.45898;95775.78;;;;
2022/03/16 03:21:13;;;;;;;38.5;27.95;;;;;;;8.21;78.45898;95775.78;;;;
2022/03/16 03:22:14;;;;;;;38.5;27.95;;;;;;;8.21;78.45898;95775.78;;;;
2022/03/16 03:23:14;;;;;;;38.5;27.95;;;;;;;8.21;78.45898;95775.78;;;;
2022/03/16 03:24:15;;;;;;;38.5;27.95;;;;;;;8.21;78.45898;95775.78;;;;
2022/03/16 03:25:15;;;;;;;38.5;27.95;;;;;;;8.21;78.45898;95775.78;;;;
2022/03/16 03:26:16;;;;;;;38.5;27.95;;;;;;;8.21;78.45898;95775.78;;;;
2022/03/16 03:27:16;;;;;;;38.5;27.95;;;;;;;8.21;78.45898;95775.78;;;;
2022/03/16 03:28:17;;;;;;;38.5;27.95;;;;;;;8.21;78.45898;95775.78;;;;
2022/03/16 03:29:17;;;;;;;39.90001;29.2;;;;;;;8.18;78.58105;95791.42;;;;
2022/03/16 03:30:18;;;;;;;39.90001;29.2;;;;;;;8.18;78.58105;95791.42;;;;
2022/03/16 03:31:19;;;;;;;39.90001;29.2;;;;;;;8.18;78.58105;95791.42;;;;
2022/03/16 03:32:20;;;;;;;39.90001;29.2;;;;;;;8.18;78.58105;95791.42;;;;
2022/03/16 03:33:20;;;;;;;39.90001;29.2;;;;;;;8.18;78.58105;95791.42;;;;
2022/03/16 03:34:21;;;;;;;39.90001;29.2;;;;;;;8.18;78.58105;95791.42;;;;
2022/03/16 03:35:21;;;;;;;39.90001;29.2;;;;;;;8.18;78.58105;95791.42;;;;
2022/03/16 03:36:22;;;;;;;39.90001;29.2;;;;;;;8.18;78.58105;95791.42;;;;
2022/03/16 03:37:25;;;;;;;39.90001;29.2;;;;;;;8.18;78.58105;95791.42;;;;
2022/03/16 03:38:25;;;;;;;39.90001;29.2;;;;;;;8.18;78.58105;95791.42;;;;
2022/03/16 03:39:26;;;;;;;39.90001;29.2;;;;;;;8.18;78.58105;95791.42;;;;
2022/03/16 03:40:26;;;;;;;44.30001;30.9;;;;;;;8.1;78.72559;95803.72;;;;
2022/03/16 03:41:27;;;;;;;44.30001;30.9;;;;;;;8.1;78.72559;95803.72;;;;
2022/03/16 03:42:27;;;;;;;44.30001;30.9;;;;;;;8.1;78.72559;95803.72;;;;
2022/03/16 03:43:28;;;;;;;44.30001;30.9;;;;;;;8.1;78.72559;95803.72;;;;
2022/03/16 03:44:29;;;;;;;44.30001;30.9;;;;;;;8.1;78.72559;95803.72;;;;
2022/03/16 03:45:31;;;;;;;44.30001;30.9;;;;;;;8.1;78.72559;95803.72;;;;
2022/03/16 03:46:32;;;;;;;44.30001;30.9;;;;;;;8.1;78.72559;95803.72;;;;
2022/03/16 03:47:32;;;;;;;44.30001;30.9;;;;;;;8.1;78.72559;95803.72;;;;
2022/03/16 03:48:33;;;;;;;44.30001;30.9;;;;;;;8.1;78.72559;95803.72;;;;
2022/03/16 03:49:33;;;;;;;44.30001;30.9;;;;;;;8.1;78.72559;95803.72;;;;
2022/03/16 03:50:35;;;;;;;48.15001;30.85;;;;;;;7.97;79.27441;95815.43;;;;
2022/03/16 03:51:35;;;;;;;48.15001;30.85;;;;;;;7.97;79.27441;95815.43;;;;
2022/03/16 03:52:36;;;;;;;48.15001;30.85;;;;;;;7.97;79.27441;95815.43;;;;
2022/03/16 03:53:36;;;;;;;48.15001;30.85;;;;;;;7.97;79.27441;95815.43;;;;
2022/03/16 03:54:37;;;;;;;48.15001;30.85;;;;;;;7.97;79.27441;95815.43;;;;
2022/03/16 03:55:37;;;;;;;48.15001;30.85;;;;;;;7.97;79.27441;95815.43;;;;
2022/03/16 03:56:38;;;;;;;48.15001;30.85;;;;;;;7.97;79.27441;95815.43;;;;
2022/03/16 03:57:38;;;;;;;48.15001;30.85;;;;;;;7.97;79.27441;95815.43;;;;
2022/03/16 03:58:39;;;;;;;48.15001;30.85;;;;;;;7.97;79.27441;95815.43;;;;
2022/03/16 03:59:39;;;;;;;48.15001;30.85;;;;;;;7.97;79.27441;95815.43;;;;
2022/03/16 04:00:40;;;;;;;48.15001;30.85;;;;;;;7.97;79.27441;95815.43;;;;
2022/03/16 04:01:40;;;;;;;54.65;32.15;;;;;;;7.8;79.5625;95826.17;;;;
2022/03/16 04:02:41;;;;;;;54.65;32.15;;;;;;;7.8;79.5625;95826.17;;;;
2022/03/16 04:03:46;;;;;;;54.65;32.15;;;;;;;7.8;79.5625;95826.17;;;;
2022/03/16 04:04:46;;;;;;;54.65;32.15;;;;;;;7.8;79.5625;95826.17;;;;
2022/03/16 04:05:47;;;;;;;54.65;32.15;;;;;;;7.8;79.5625;95826.17;;;;
2022/03/16 04:06:47;;;;;;;54.65;32.15;;;;;;;7.8;79.5625;95826.17;;;;
2022/03/16 04:07:48;;;;;;;54.65;32.15;;;;;;;7.8;79.5625;95826.17;;;;
2022/03/16 04:08:49;;;;;;;54.65;32.15;;;;;;;7.8;79.5625;95826.17;;;;
2022/03/16 04:09:50;;;;;;;54.65;32.15;;;;;;;7.8;79.5625;95826.17;;;;
2022/03/16 04:10:51;;;;;;;54.65;32.15;;;;;;;7.8;79.5625;95826.17;;;;
2022/03/16 04:11:51;;;;;;;54.65;32.15;;;;;;;7.8;79.5625;95826.17;;;;
2022/03/16 04:12:52;;;;;;;51.44999;30.9;;;;;;;7.65;80.12012;95826.87;;;;
2022/03/16 04:13:53;;;;;;;51.44999;30.9;;;;;;;7.65;80.12012;95826.87;;;;
2022/03/16 04:14:53;;;;;;;51.44999;30.9;;;;;;;7.65;80.12012;95826.87;;;;
2022/03/16 04:15:54;;;;;;;51.44999;30.9;;;;;;;7.65;80.12012;95826.87;;;;
2022/03/16 04:16:54;;;;;;;51.44999;30.9;;;;;;;7.65;80.12012;95826.87;;;;
2022/03/16 04:17:55;;;;;;;51.44999;30.9;;;;;;;7.65;80.12012;95826.87;;;;
2022/03/16 04:18:55;;;;;;;51.44999;30.9;;;;;;;7.65;80.12012;95826.87;;;;
2022/03/16 04:19:56;;;;;;;51.44999;30.9;;;;;;;7.65;80.12012;95826.87;;;;
2022/03/16 04:20:56;;;;;;;51.44999;30.9;;;;;;;7.65;80.12012;95826.87;;;;
2022/03/16 04:21:57;;;;;;;51.44999;30.9;;;;;;;7.65;80.12012;95826.87;;;;
2022/03/16 04:22:57;;;;;;;51.44999;30.9;;;;;;;7.65;80.12012;95826.87;;;;
2022/03/16 04:23:58;;;;;;;51.44999;30.9;;;;;;;7.65;80.12012;95826.87;;;;
2022/03/16 04:24:59;;;;;;;51.44999;30.9;;;;;;;7.65;80.12012;95826.87;;;;
2022/03/16 04:26:00;;;;;;;51.44999;30.9;;;;;;;7.65;80.12012;95826.87;;;;
2022/03/16 04:27:00;;;;;;;51.44999;30.9;;;;;;;7.65;80.12012;95826.87;;;;
2022/03/16 04:28:01;;;;;;;51.44999;30.9;;;;;;;7.65;80.12012;95826.87;;;;
2022/03/16 04:29:01;;;;;;;51.44999;30.9;;;;;;;7.65;80.12012;95826.87;;;;
2022/03/16 04:30:02;;;;;;;51.44999;30.9;;;;;;;7.65;80.12012;95826.87;;;;
2022/03/16 04:31:03;;;;;;;51.44999;30.9;;;;;;;7.65;80.12012;95826.87;;;;
2022/03/16 04:32:04;;;;;;;51.44999;30.9;;;;;;;7.65;80.12012;95826.87;;;;
2022/03/16 04:33:06;;;;;;;51.44999;30.9;;;;;;;7.65;80.12012;95826.87;;;;
2022/03/16 04:34:06;;;;;;;55.49999;31.7;;;;;;;7.51;80.39941;95854.33;;;;
2022/03/16 04:35:07;;;;;;;55.49999;31.7;;;;;;;7.51;80.39941;95854.33;;;;
2022/03/16 04:36:08;;;;;;;55.49999;31.7;;;;;;;7.51;80.39941;95854.33;;;;
2022/03/16 04:37:08;;;;;;;55.49999;31.7;;;;;;;7.51;80.39941;95854.33;;;;
2022/03/16 04:38:09;;;;;;;55.49999;31.7;;;;;;;7.51;80.39941;95854.33;;;;
2022/03/16 04:39:09;;;;;;;55.49999;31.7;;;;;;;7.51;80.39941;95854.33;;;;
2022/03/16 04:40:10;;;;;;;55.49999;31.7;;;;;;;7.51;80.39941;95854.33;;;;
2022/03/16 04:41:12;;;;;;;55.49999;31.7;;;;;;;7.51;80.39941;95854.33;;;;
2022/03/16 04:42:12;;;;;;;55.49999;31.7;;;;;;;7.51;80.39941;95854.33;;;;
2022/03/16 04:43:13;;;;;;;55.49999;31.7;;;;;;;7.51;80.39941;95854.33;;;;
2022/03/16 04:44:14;;;;;;;55.49999;31.7;;;;;;;7.51;80.39941;95854.33;;;;
2022/03/16 04:45:15;;;;;;;55.49999;31.7;;;;;;;7.51;80.39941;95854.33;;;;
2022/03/16 04:46:15;;;;;;;55.49999;31.7;;;;;;;7.51;80.39941;95854.33;;;;
2022/03/16 04:47:16;;;;;;;55.49999;31.7;;;;;;;7.51;80.39941;95854.33;;;;
2022/03/16 04:48:16;;;;;;;55.49999;31.7;;;;;;;7.51;80.39941;95854.33;;;;
2022/03/16 04:49:17;;;;;;;55.49999;31.7;;;;;;;7.51;80.39941;95854.33;;;;
2022/03/16 04:50:18;;;;;;;55.49999;31.7;;;;;;;7.51;80.39941;95854.33;;;;
2022/03/16 04:51:19;;;;;;;55.49999;31.7;;;;;;;7.51;80.39941;95854.33;;;;
2022/03/16 04:52:19;;;;;;;55.49999;31.7;;;;;;;7.51;80.39941;95854.33;;;;
2022/03/16 04:53:19;;;;;;;55.49999;31.7;;;;;;;7.51;80.39941;95854.33;;;;
2022/03/16 04:54:20;;;;;;;55.49999;31.7;;;;;;;7.51;80.39941;95854.33;;;;
2022/03/16 04:55:20;;;;;;;42.75;26.6;;;;;;;7.37;80.81836;95868.76;;;;
2022/03/16 04:56:21;;;;;;;42.75;26.6;;;;;;;7.37;80.81836;95868.76;;;;
2022/03/16 04:57:21;;;;;;;42.75;26.6;;;;;;;7.37;80.81836;95868.76;;;;
2022/03/16 04:58:22;;;;;;;42.75;26.6;;;;;;;7.37;80.81836;95868.76;;;;
2022/03/16 04:59:22;;;;;;;42.75;26.6;;;;;;;7.37;80.81836;95868.76;;;;
2022/03/16 05:00:24;;;;;;;42.75;26.6;;;;;;;7.37;80.81836;95868.76;;;;
2022/03/16 05:01:25;;;;;;;42.75;26.6;;;;;;;7.37;80.81836;95868.76;;;;
2022/03/16 05:02:25;;;;;;;42.75;26.6;;;;;;;7.37;80.81836;95868.76;;;;
2022/03/16 05:03:26;;;;;;;42.75;26.6;;;;;;;7.37;80.81836;95868.76;;;;
2022/03/16 05:04:26;;;;;;;42.75;26.6;;;;;;;7.37;80.81836;95868.76;;;;
2022/03/16 05:05:28;;;;;;;42.75;26.6;;;;;;;7.37;80.81836;95868.76;;;;
2022/03/16 05:06:29;;;;;;;37.85;25.05;;;;;;;7.26;80.87207;95874.29;;;;
2022/03/16 05:07:30;;;;;;;37.85;25.05;;;;;;;7.26;80.87207;95874.29;;;;
2022/03/16 05:08:35;;;;;;;37.85;25.05;;;;;;;7.26;80.87207;95874.29;;;;
2022/03/16 05:09:35;;;;;;;37.85;25.05;;;;;;;7.26;80.87207;95874.29;;;;
2022/03/16 05:10:36;;;;;;;37.85;25.05;;;;;;;7.26;80.87207;95874.29;;;;
2022/03/16 05:11:40;;;;;;;37.85;25.05;;;;;;;7.26;80.87207;95874.29;;;;
2022/03/16 05:12:41;;;;;;;37.85;25.05;;;;;;;7.26;80.87207;95874.29;;;;
2022/03/16 05:13:43;;;;;;;37.85;25.05;;;;;;;7.26;80.87207;95874.29;;;;
2022/03/16 05:14:43;;;;;;;37.85;25.05;;;;;;;7.26;80.87207;95874.29;;;;
2022/03/16 05:15:44;;;;;;;37.85;25.05;;;;;;;7.26;80.87207;95874.29;;;;
2022/03/16 05:16:44;;;;;;;39.8;25.95;;;;;;;7.09;80.85254;95894.86;;;;
2022/03/16 05:17:45;;;;;;;39.8;25.95;;;;;;;7.09;80.85254;95894.86;;;;
2022/03/16 05:18:46;;;;;;;39.8;25.95;;;;;;;7.09;80.85254;95894.86;;;;
2022/03/16 05:19:48;;;;;;;39.8;25.95;;;;;;;7.09;80.85254;95894.86;;;;
2022/03/16 05:20:49;;;;;;;39.8;25.95;;;;;;;7.09;80.85254;95894.86;;;;
2022/03/16 05:21:49;;;;;;;39.8;25.95;;;;;;;7.09;80.85254;95894.86;;;;
2022/03/16 05:22:50;;;;;;;39.8;25.95;;;;;;;7.09;80.85254;95894.86;;;;
2022/03/16 05:23:52;;;;;;;39.8;25.95;;;;;;;7.09;80.85254;95894.86;;;;
2022/03/16 05:24:53;;;;;;;39.8;25.95;;;;;;;7.09;80.85254;95894.86;;;;
2022/03/16 05:25:53;;;;;;;39.8;25.95;;;;;;;7.09;80.85254;95894.86;;;;
2022/03/16 05:26:54;;;;;;;39.8;25.95;;;;;;;7.09;80.85254;95894.86;;;;
2022/03/16 05:27:54;;;;;;;40.35001;25.90001;;;;;;;6.97;80.80859;95913.4;;;;
2022/03/16 05:28:56;;;;;;;40.35001;25.90001;;;;;;;6.97;80.80859;95913.4;;;;
2022/03/16 05:29:57;;;;;;;40.35001;25.90001;;;;;;;6.97;80.80859;95913.4;;;;
2022/03/16 05:30:57;;;;;;;40.35001;25.90001;;;;;;;6.97;80.80859;95913.4;;;;
2022/03/16 05:31:58;;;;;;;40.35001;25.90001;;;;;;;6.97;80.80859;95913.4;;;;
2022/03/16 05:33:00;;;;;;;40.35001;25.90001;;;;;;;6.97;80.80859;95913.4;;;;
2022/03/16 05:34:01;;;;;;;40.35001;25.90001;;;;;;;6.97;80.80859;95913.4;;;;
2022/03/16 05:35:01;;;;;;;40.35001;25.90001;;;;;;;6.97;80.80859;95913.4;;;;
2022/03/16 05:36:03;;;;;;;40.35001;25.90001;;;;;;;6.97;80.80859;95913.4;;;;
2022/03/16 05:37:05;;;;;;;40.35001;25.90001;;;;;;;6.97;80.80859;95913.4;;;;
2022/03/16 05:38:07;;;;;;;44.65;27.95;;;;;;;6.85;80.87012;95923.97;;;;
2022/03/16 05:39:09;;;;;;;44.65;27.95;;;;;;;6.85;80.87012;95923.97;;;;
2022/03/16 05:40:10;;;;;;;44.65;27.95;;;;;;;6.85;80.87012;95923.97;;;;
2022/03/16 05:41:11;;;;;;;44.65;27.95;;;;;;;6.85;80.87012;95923.97;;;;